Time;durP1;ratioP1;P1;durP2;ratioP2;P2;SDS_P1;SDS_P2;PMS_P1;PMS_P2;Temp;Humidity;BMP_temperature;BMP_pressure;BME280_temperature;BME280_humidity;BME280_pressure;Samples;Min_cycle;Max_cycle;Signal;HPM_P1;HPM_P2
2023/04/07 00:00:43;;;;;;;45.03;18.02;;;7.50;99.90;;;;;;5115962;28;20040;-79
2023/04/07 00:03:10;;;;;;;56.05;23.17;;;7.60;99.90;;;;;;5098317;28;20490;-79
2023/04/07 00:05:36;;;;;;;52.75;22.35;;;7.50;99.90;;;;;;5116525;28;20054;-79
2023/04/07 00:08:01;;;;;;;50.75;21.45;;;7.50;99.90;;;;;;5047801;28;20039;-75
2023/04/07 00:10:27;;;;;;;54.47;23.55;;;7.60;99.90;;;;;;5080775;28;20043;-76
2023/04/07 00:12:53;;;;;;;60.10;23.30;;;7.50;99.90;;;;;;5097533;28;20047;-76
2023/04/07 00:15:19;;;;;;;57.28;23.30;;;7.50;99.90;;;;;;5097337;28;20149;-77
2023/04/07 00:17:44;;;;;;;55.38;23.10;;;7.40;99.90;;;;;;5115462;28;20155;-78
2023/04/07 00:20:11;;;;;;;56.45;22.85;;;7.40;99.90;;;;;;5115770;28;20136;-78
2023/04/07 00:22:36;;;;;;;58.83;25.10;;;7.40;99.90;;;;;;5097804;28;20032;-78
2023/04/07 00:25:02;;;;;;;53.67;22.90;;;7.50;99.90;;;;;;5098520;28;20055;-77
2023/04/07 00:27:28;;;;;;;56.03;22.73;;;7.50;99.90;;;;;;5099053;28;20385;-79
2023/04/07 00:29:54;;;;;;;56.72;23.45;;;7.50;99.90;;;;;;5098234;28;20464;-77
2023/04/07 00:32:20;;;;;;;62.25;24.42;;;7.50;99.90;;;;;;5116202;28;20044;-79
2023/04/07 00:34:46;;;;;;;55.83;22.27;;;7.50;99.90;;;;;;5080765;28;20047;-77
2023/04/07 00:37:12;;;;;;;55.78;22.83;;;7.50;99.90;;;;;;5113513;28;20433;-76
2023/04/07 00:39:37;;;;;;;53.65;21.77;;;7.60;99.90;;;;;;5115123;28;20039;-76
2023/04/07 00:42:05;;;;;;;56.00;22.15;;;7.60;99.90;;;;;;5097316;28;20043;-78
2023/04/07 00:44:31;;;;;;;45.47;19.13;;;7.50;99.90;;;;;;5115188;28;20047;-78
2023/04/07 00:46:57;;;;;;;56.00;23.95;;;7.50;99.90;;;;;;5115402;28;20059;-80
2023/04/07 00:49:24;;;;;;;51.90;20.25;;;7.50;99.90;;;;;;5080911;28;20123;-77
2023/04/07 00:51:50;;;;;;;56.57;23.07;;;7.50;99.90;;;;;;5114823;28;20043;-76
2023/04/07 00:54:17;;;;;;;64.85;24.63;;;7.50;99.90;;;;;;5097287;28;20089;-78
2023/04/07 00:56:43;;;;;;;54.20;21.45;;;7.40;99.90;;;;;;5097113;28;20379;-77
2023/04/07 00:59:09;;;;;;;59.47;24.20;;;7.50;99.90;;;;;;5096700;28;20047;-76
2023/04/07 01:02:02;;;;;;;55.78;22.70;;;7.40;99.90;;;;;;5114861;28;20039;-76
2023/04/07 01:04:45;;;;;;;57.03;22.98;;;7.40;99.90;;;;;;5106582;28;20407;-80
2023/04/07 01:07:16;;;;;;;50.20;20.50;;;7.40;99.90;;;;;;5114430;28;20039;-76
2023/04/07 01:09:53;;;;;;;57.33;24.38;;;7.40;99.90;;;;;;5114884;28;20048;-76
2023/04/07 01:12:41;;;;;;;52.90;22.17;;;7.40;99.90;;;;;;5114524;28;20377;-78
2023/04/07 01:15:11;;;;;;;59.47;22.73;;;7.40;99.90;;;;;;5096139;28;20486;-74
2023/04/07 01:17:44;;;;;;;53.75;21.80;;;7.40;99.90;;;;;;5114912;28;20040;-77
2023/04/07 01:20:15;;;;;;;55.15;22.83;;;7.40;99.90;;;;;;5096883;28;20445;-77
2023/04/07 01:22:48;;;;;;;64.53;25.08;;;7.40;99.90;;;;;;5097322;28;20048;-76
2023/04/07 01:25:25;;;;;;;56.40;24.42;;;7.50;99.90;;;;;;5114405;28;20084;-76
2023/04/07 01:27:59;;;;;;;48.53;19.20;;;7.50;99.90;;;;;;5114966;28;20054;-75
2023/04/07 01:30:29;;;;;;;54.88;22.92;;;7.50;99.90;;;;;;5096984;28;20421;-77
2023/04/07 01:32:58;;;;;;;57.53;23.63;;;7.40;99.90;;;;;;5114363;28;20044;-78
2023/04/07 01:35:26;;;;;;;52.05;22.10;;;7.40;99.90;;;;;;5079272;28;20051;-78
2023/04/07 01:37:54;;;;;;;47.33;19.25;;;7.40;99.90;;;;;;5113878;28;20044;-75
2023/04/07 01:40:20;;;;;;;59.35;23.58;;;7.50;99.90;;;;;;5113728;28;20055;-79
2023/04/07 01:42:48;;;;;;;51.83;21.75;;;7.40;99.90;;;;;;5113915;28;20396;-75
2023/04/07 01:45:15;;;;;;;58.78;22.98;;;7.50;99.90;;;;;;5113784;28;20043;-80
2023/04/07 01:47:41;;;;;;;54.03;21.77;;;7.50;99.90;;;;;;5078983;28;20060;-78
2023/04/07 01:50:08;;;;;;;56.50;22.48;;;7.50;99.90;;;;;;5095641;28;20059;-77
2023/04/07 01:52:35;;;;;;;51.13;21.23;;;7.50;99.90;;;;;;5095654;28;20043;-76
2023/04/07 01:55:05;;;;;;;54.10;23.30;;;7.40;99.90;;;;;;5113755;28;20050;-76
2023/04/07 01:57:30;;;;;;;55.92;22.75;;;7.40;99.90;;;;;;5113473;28;20040;-75
2023/04/07 01:59:56;;;;;;;51.72;21.65;;;7.40;99.90;;;;;;5095782;28;20195;-75
2023/04/07 02:02:22;;;;;;;55.10;22.05;;;7.40;99.90;;;;;;5112366;28;20456;-77
2023/04/07 02:04:56;;;;;;;53.83;23.25;;;7.40;99.90;;;;;;5114261;28;20044;-75
2023/04/07 02:07:34;;;;;;;51.78;21.45;;;7.40;99.90;;;;;;5113470;28;20096;-77
2023/04/07 02:10:02;;;;;;;56.08;22.73;;;7.40;99.90;;;;;;5116940;28;20082;-76
2023/04/07 02:12:30;;;;;;;59.35;23.02;;;7.40;99.90;;;;;;5118521;28;20425;-79
2023/04/07 02:14:57;;;;;;;56.80;22.70;;;7.40;99.90;;;;;;5082604;28;20087;-77
2023/04/07 02:17:27;;;;;;;54.63;21.20;;;7.40;99.90;;;;;;5099685;28;20093;-76
2023/04/07 02:19:54;;;;;;;55.05;22.75;;;7.40;99.90;;;;;;5118537;28;20044;-76
2023/04/07 02:22:20;;;;;;;52.30;21.52;;;7.40;99.90;;;;;;5101256;28;20082;-75
2023/04/07 02:24:46;;;;;;;54.30;21.95;;;7.40;99.90;;;;;;5100353;28;20429;-77
2023/04/07 02:27:12;;;;;;;46.03;19.00;;;7.40;99.90;;;;;;5117891;28;20104;-75
2023/04/07 02:29:37;;;;;;;53.05;20.50;;;7.40;99.90;;;;;;5117347;28;20042;-73
2023/04/07 02:32:05;;;;;;;53.45;21.38;;;7.40;99.90;;;;;;5117952;28;20492;-76
2023/04/07 02:34:30;;;;;;;55.85;22.75;;;7.40;99.90;;;;;;5117425;28;20099;-75
2023/04/07 02:36:56;;;;;;;55.50;22.70;;;7.40;99.90;;;;;;5099099;28;20429;-75
2023/04/07 02:39:22;;;;;;;49.92;21.00;;;7.40;99.90;;;;;;5099182;28;20077;-76
2023/04/07 02:41:47;;;;;;;51.60;21.23;;;7.40;99.90;;;;;;5116435;28;20419;-76
2023/04/07 02:44:13;;;;;;;54.13;22.42;;;7.40;99.90;;;;;;5117513;28;20177;-75
2023/04/07 02:46:40;;;;;;;50.22;21.65;;;7.40;99.90;;;;;;5116971;28;20048;-74
2023/04/07 02:49:06;;;;;;;51.20;20.85;;;7.40;99.90;;;;;;5100013;28;20066;-75
2023/04/07 02:51:31;;;;;;;51.53;20.20;;;7.30;99.90;;;;;;5117600;28;20044;-76
2023/04/07 02:53:57;;;;;;;50.38;20.73;;;7.40;99.90;;;;;;5099145;28;20082;-76
2023/04/07 02:56:23;;;;;;;47.97;19.90;;;7.40;99.90;;;;;;5098800;28;20047;-75
2023/04/07 02:58:48;;;;;;;46.25;19.63;;;7.40;99.90;;;;;;5116960;28;20055;-77
2023/04/07 03:01:14;;;;;;;47.22;20.58;;;7.40;99.90;;;;;;5117421;28;20039;-76
2023/04/07 03:03:41;;;;;;;44.20;19.48;;;7.40;99.90;;;;;;5099642;28;20486;-75
2023/04/07 03:06:07;;;;;;;48.85;19.95;;;7.40;99.90;;;;;;5098758;28;20090;-75
2023/04/07 03:08:33;;;;;;;45.45;19.58;;;7.40;99.90;;;;;;5115593;28;20079;-74
2023/04/07 03:10:59;;;;;;;47.58;19.92;;;7.40;99.90;;;;;;5099679;28;20062;-75
2023/04/07 03:13:24;;;;;;;44.95;19.42;;;7.40;99.90;;;;;;5065229;28;20051;-75
2023/04/07 03:15:50;;;;;;;44.03;18.08;;;7.40;99.90;;;;;;5098503;28;20050;-75
2023/04/07 03:18:16;;;;;;;46.58;19.83;;;7.40;99.90;;;;;;5099360;28;20051;-74
2023/04/07 03:20:43;;;;;;;42.72;18.65;;;7.40;99.90;;;;;;5097714;28;20043;-75
2023/04/07 03:23:09;;;;;;;47.22;19.10;;;7.40;99.90;;;;;;5081934;28;20168;-77
2023/04/07 03:25:35;;;;;;;41.72;17.45;;;7.40;99.90;;;;;;5098216;28;20101;-76
2023/04/07 03:28:01;;;;;;;43.38;18.60;;;7.60;99.90;;;;;;5115853;28;20482;-75
2023/04/07 03:30:26;;;;;;;45.17;18.70;;;7.40;99.90;;;;;;5098453;28;20052;-75
2023/04/07 03:32:52;;;;;;;40.97;17.95;;;7.40;99.90;;;;;;5082510;28;20126;-75
2023/04/07 03:35:18;;;;;;;44.92;19.10;;;7.40;99.90;;;;;;5098758;28;20050;-76
2023/04/07 03:37:43;;;;;;;43.90;18.42;;;7.40;99.90;;;;;;5117066;28;20077;-75
2023/04/07 03:40:10;;;;;;;41.40;18.55;;;7.40;99.90;;;;;;5115819;28;20039;-75
2023/04/07 03:42:35;;;;;;;42.30;18.05;;;7.50;99.90;;;;;;5117598;28;20092;-75
2023/04/07 03:45:01;;;;;;;39.03;17.88;;;7.40;99.90;;;;;;5117325;28;20052;-75
2023/04/07 03:47:27;;;;;;;41.13;16.95;;;7.40;99.90;;;;;;5119355;28;20117;-76
2023/04/07 03:49:52;;;;;;;40.97;18.13;;;7.50;99.90;;;;;;5122141;28;20051;-75
2023/04/07 03:52:18;;;;;;;40.70;17.50;;;7.50;99.90;;;;;;5124043;28;20055;-75
2023/04/07 03:54:44;;;;;;;43.28;19.17;;;7.50;99.90;;;;;;5123980;28;20040;-74
2023/04/07 03:57:09;;;;;;;42.83;18.52;;;7.50;99.90;;;;;;5120551;28;20039;-74
2023/04/07 03:59:35;;;;;;;34.97;15.45;;;7.50;99.90;;;;;;5119158;28;20040;-76
2023/04/07 04:02:01;;;;;;;37.22;15.70;;;7.50;99.90;;;;;;5083311;28;20036;-76
2023/04/07 04:04:27;;;;;;;36.80;16.42;;;7.60;99.90;;;;;;5117233;28;20043;-76
2023/04/07 04:06:52;;;;;;;37.78;17.45;;;7.50;99.90;;;;;;5097479;28;20048;-75
2023/04/07 04:09:19;;;;;;;32.20;15.48;;;7.50;99.90;;;;;;5114344;28;20135;-75
2023/04/07 04:11:45;;;;;;;34.25;14.43;;;7.50;99.90;;;;;;5081038;28;20116;-75
2023/04/07 04:14:11;;;;;;;34.15;15.27;;;7.50;99.90;;;;;;5116108;28;20046;-76
2023/04/07 04:16:37;;;;;;;36.85;16.77;;;7.50;99.90;;;;;;5097918;28;20043;-76
2023/04/07 04:19:02;;;;;;;36.45;15.90;;;7.50;99.90;;;;;;5096950;28;20044;-74
2023/04/07 04:21:28;;;;;;;33.08;15.93;;;7.40;99.90;;;;;;5115525;28;20048;-76
2023/04/07 04:23:54;;;;;;;33.25;15.40;;;7.40;99.90;;;;;;5115761;28;20050;-75
2023/04/07 04:26:24;;;;;;;29.45;14.18;;;7.40;99.90;;;;;;5096985;28;20104;-76
2023/04/07 04:28:50;;;;;;;32.08;14.60;;;7.40;99.90;;;;;;5115406;28;20106;-77
2023/04/07 04:31:16;;;;;;;30.30;14.52;;;7.50;99.90;;;;;;5115973;28;20046;-73
2023/04/07 04:33:42;;;;;;;29.45;14.05;;;7.40;99.90;;;;;;5096161;28;20036;-74
2023/04/07 04:36:08;;;;;;;25.75;11.75;;;7.40;99.90;;;;;;5079852;28;20184;-73
2023/04/07 04:38:33;;;;;;;31.02;14.15;;;7.50;99.90;;;;;;5114979;28;20044;-75
2023/04/07 04:40:59;;;;;;;30.33;14.70;;;7.40;99.90;;;;;;5080524;28;20078;-75
2023/04/07 04:43:25;;;;;;;33.03;15.25;;;7.50;99.90;;;;;;5080986;28;20066;-75
2023/04/07 04:45:51;;;;;;;30.35;15.15;;;7.40;99.90;;;;;;5114882;28;20044;-74
2023/04/07 04:48:16;;;;;;;29.92;14.43;;;7.40;99.90;;;;;;5115257;28;20475;-75
2023/04/07 04:50:42;;;;;;;30.95;14.30;;;7.30;99.90;;;;;;5114323;28;20130;-76
2023/04/07 04:53:15;;;;;;;30.15;14.25;;;7.40;99.90;;;;;;5090469;27;20397;-74
2023/04/07 04:55:45;;;;;;;31.70;15.38;;;7.40;99.90;;;;;;5088611;28;20106;-74
2023/04/07 04:58:11;;;;;;;32.42;15.82;;;7.40;99.90;;;;;;5076387;28;20049;-74
2023/04/07 05:00:37;;;;;;;33.50;15.88;;;7.40;99.90;;;;;;5068292;28;20063;-74
2023/04/07 05:03:03;;;;;;;32.55;15.23;;;7.30;99.90;;;;;;5067602;28;20037;-75
2023/04/07 05:05:28;;;;;;;31.27;14.00;;;7.30;99.90;;;;;;5069385;28;20130;-75
2023/04/07 05:07:55;;;;;;;30.58;15.32;;;7.40;99.90;;;;;;5068878;28;20045;-75
2023/04/07 05:10:20;;;;;;;29.73;13.95;;;7.40;99.90;;;;;;5069410;28;20080;-76
2023/04/07 05:12:46;;;;;;;30.20;14.63;;;7.40;99.90;;;;;;5067414;28;20501;-75
2023/04/07 05:15:14;;;;;;;28.25;14.20;;;7.40;99.90;;;;;;5065003;28;20139;-76
2023/04/07 05:17:40;;;;;;;29.40;14.07;;;7.30;99.90;;;;;;5069220;28;20049;-75
2023/04/07 05:20:08;;;;;;;32.27;15.47;;;7.30;99.90;;;;;;5068202;28;20090;-75
2023/04/07 05:22:33;;;;;;;31.27;14.65;;;7.40;99.90;;;;;;5069468;28;20056;-76
2023/04/07 05:25:00;;;;;;;31.40;15.13;;;7.30;99.90;;;;;;5069323;28;20045;-75
2023/04/07 05:27:26;;;;;;;25.83;12.10;;;7.40;99.90;;;;;;5068419;28;20136;-75
2023/04/07 05:29:52;;;;;;;30.83;14.35;;;7.30;99.90;;;;;;5067887;28;20127;-76
2023/04/07 05:32:18;;;;;;;26.75;13.38;;;7.40;99.90;;;;;;5082768;28;20040;-77
2023/04/07 05:34:44;;;;;;;29.33;13.75;;;7.40;99.90;;;;;;5087349;28;20083;-74
2023/04/07 05:37:09;;;;;;;21.23;10.05;;;7.40;99.90;;;;;;5089079;28;20557;-75
2023/04/07 05:39:35;;;;;;;26.92;13.85;;;7.40;99.90;;;;;;5088983;28;20104;-76
2023/04/07 05:42:01;;;;;;;28.25;14.18;;;7.40;99.90;;;;;;5088709;28;20040;-76
2023/04/07 05:44:27;;;;;;;31.10;14.30;;;7.30;99.90;;;;;;5071077;28;20060;-76
2023/04/07 05:46:53;;;;;;;26.00;12.82;;;7.30;99.90;;;;;;5121285;28;20052;-76
2023/04/07 05:49:19;;;;;;;24.38;11.73;;;7.40;99.90;;;;;;5088143;28;20127;-76
2023/04/07 05:51:44;;;;;;;26.52;13.00;;;7.40;99.90;;;;;;5088544;28;20107;-75
2023/04/07 05:54:10;;;;;;;28.55;14.20;;;7.50;99.90;;;;;;5088856;28;20048;-74
2023/04/07 05:56:36;;;;;;;24.83;11.63;;;7.40;99.90;;;;;;5088710;28;20051;-75
2023/04/07 05:59:02;;;;;;;22.65;11.35;;;7.50;99.90;;;;;;5070448;28;20052;-75
2023/04/07 06:01:28;;;;;;;23.02;11.13;;;7.50;99.90;;;;;;5087198;28;20071;-75
2023/04/07 06:03:54;;;;;;;26.47;12.73;;;7.60;99.90;;;;;;5078566;28;20106;-76
2023/04/07 06:06:20;;;;;;;25.35;11.25;;;7.50;99.90;;;;;;5042675;28;20609;-78
2023/04/07 06:08:46;;;;;;;21.80;11.52;;;7.60;99.90;;;;;;5054484;28;20102;-75
2023/04/07 06:11:12;;;;;;;28.83;13.77;;;7.50;99.90;;;;;;5053434;28;20163;-76
2023/04/07 06:13:37;;;;;;;26.50;12.98;;;7.60;99.90;;;;;;5053551;28;20049;-76
2023/04/07 06:16:05;;;;;;;25.17;11.95;;;7.50;99.90;;;;;;5053173;28;20235;-76
2023/04/07 06:18:31;;;;;;;24.50;12.57;;;7.50;99.90;;;;;;5053502;28;20048;-75
2023/04/07 06:20:56;;;;;;;28.38;13.52;;;7.60;99.90;;;;;;5054319;28;20045;-76
2023/04/07 06:23:22;;;;;;;24.73;12.02;;;7.50;99.90;;;;;;5053782;28;20041;-76
2023/04/07 06:25:52;;;;;;;34.47;18.90;;;7.50;99.90;;;;;;5052968;28;20485;-76
2023/04/07 06:28:18;;;;;;;26.60;11.90;;;7.60;99.90;;;;;;5054498;28;20053;-76
2023/04/07 06:30:44;;;;;;;33.20;18.03;;;7.60;99.90;;;;;;5053418;28;20132;-75
2023/04/07 06:33:09;;;;;;;38.38;21.05;;;7.60;99.90;;;;;;5053814;28;20132;-77
2023/04/07 06:35:35;;;;;;;31.95;17.10;;;7.50;99.90;;;;;;5053414;28;20151;-76
2023/04/07 06:38:01;;;;;;;36.70;19.80;;;7.50;99.90;;;;;;5036453;28;20045;-77
2023/04/07 06:40:27;;;;;;;37.35;19.13;;;7.60;99.90;;;;;;5053699;28;20049;-75
2023/04/07 06:42:53;;;;;;;29.70;14.48;;;7.60;99.90;;;;;;5053907;28;20045;-77
2023/04/07 06:45:19;;;;;;;33.47;16.20;;;7.60;99.90;;;;;;5053216;28;20049;-78
2023/04/07 06:47:45;;;;;;;32.38;17.02;;;7.60;99.90;;;;;;5087741;28;20053;-75
2023/04/07 06:50:11;;;;;;;31.98;15.52;;;7.50;99.90;;;;;;5056981;28;20053;-79
2023/04/07 06:52:36;;;;;;;33.53;17.58;;;7.60;99.90;;;;;;5037614;28;20119;-77
2023/04/07 06:55:02;;;;;;;29.42;15.23;;;7.60;99.90;;;;;;5054268;28;20095;-75
2023/04/07 06:57:28;;;;;;;31.23;14.45;;;7.60;99.90;;;;;;5053645;28;20504;-75
2023/04/07 06:59:54;;;;;;;31.73;15.77;;;7.60;99.90;;;;;;5053879;28;20091;-75
2023/04/07 07:02:20;;;;;;;29.08;14.43;;;7.60;99.90;;;;;;5053260;28;20090;-75
2023/04/07 07:04:45;;;;;;;28.50;15.00;;;7.60;99.90;;;;;;5036957;28;20059;-76
2023/04/07 07:07:11;;;;;;;29.48;14.98;;;7.70;99.90;;;;;;5053952;28;20060;-74
2023/04/07 07:09:37;;;;;;;31.02;15.25;;;7.60;99.90;;;;;;5053028;28;20135;-75
2023/04/07 07:12:03;;;;;;;32.53;14.90;;;7.70;99.90;;;;;;5053515;28;20045;-75
2023/04/07 07:14:28;;;;;;;32.10;15.07;;;7.80;99.90;;;;;;5053637;28;20427;-75
2023/04/07 07:16:55;;;;;;;28.63;13.77;;;7.90;99.90;;;;;;5051651;28;20056;-74
2023/04/07 07:19:20;;;;;;;33.07;17.77;;;8.00;99.90;;;;;;5053724;28;20390;-74
2023/04/07 07:21:46;;;;;;;29.92;15.07;;;8.00;99.90;;;;;;5052366;28;20283;-75
2023/04/07 07:24:12;;;;;;;32.42;15.57;;;8.10;99.90;;;;;;5052013;28;20139;-74
2023/04/07 07:26:38;;;;;;;31.42;15.07;;;8.20;99.90;;;;;;5052435;28;20044;-77
2023/04/07 07:29:03;;;;;;;30.73;14.73;;;8.40;99.90;;;;;;5052833;28;20128;-77
2023/04/07 07:31:30;;;;;;;26.17;13.52;;;8.50;99.90;;;;;;5052189;28;20132;-75
2023/04/07 07:33:55;;;;;;;26.52;14.10;;;8.70;99.90;;;;;;5052878;28;20049;-75
2023/04/07 07:36:21;;;;;;;25.55;12.68;;;8.70;99.90;;;;;;5052074;28;20157;-77
2023/04/07 07:38:50;;;;;;;27.13;14.00;;;8.80;99.90;;;;;;5052046;28;20136;-78
2023/04/07 07:41:15;;;;;;;29.00;14.65;;;8.90;99.90;;;;;;5051720;28;20439;-77
2023/04/07 07:43:41;;;;;;;31.10;14.98;;;8.90;99.90;;;;;;5045262;28;20078;-76
2023/04/07 07:46:07;;;;;;;27.63;13.00;;;9.00;99.90;;;;;;5072287;28;20054;-78
2023/04/07 07:48:33;;;;;;;28.65;14.45;;;9.10;99.90;;;;;;5056685;28;20167;-74
2023/04/07 07:50:59;;;;;;;25.83;12.88;;;9.10;99.90;;;;;;5064135;28;20079;-75
2023/04/07 07:53:25;;;;;;;32.00;15.73;;;9.20;99.90;;;;;;5071107;28;20057;-77
2023/04/07 07:55:51;;;;;;;24.52;12.38;;;9.20;99.90;;;;;;5072606;28;20064;-76
2023/04/07 07:58:16;;;;;;;27.73;12.88;;;9.10;99.90;;;;;;5071882;28;20049;-76
2023/04/07 08:00:42;;;;;;;28.25;14.23;;;9.10;99.90;;;;;;5071597;28;20059;-77
2023/04/07 08:03:08;;;;;;;30.23;14.70;;;9.10;99.90;;;;;;5072493;28;20040;-76
2023/04/07 08:05:34;;;;;;;25.83;13.30;;;9.10;99.90;;;;;;5070449;28;20044;-76
2023/04/07 08:08:00;;;;;;;29.63;15.40;;;9.10;99.90;;;;;;5054414;28;20400;-77
2023/04/07 08:10:26;;;;;;;30.03;14.70;;;9.10;99.90;;;;;;5071300;28;20045;-77
2023/04/07 08:12:51;;;;;;;30.75;15.82;;;9.10;99.90;;;;;;5054541;28;20670;-76
2023/04/07 08:15:17;;;;;;;30.13;14.77;;;9.10;99.90;;;;;;5070725;28;20094;-77
2023/04/07 08:17:43;;;;;;;32.80;16.92;;;9.10;99.90;;;;;;5072214;28;20045;-76
2023/04/07 08:20:10;;;;;;;31.55;15.65;;;9.10;99.90;;;;;;5054333;28;20052;-75
2023/04/07 08:22:36;;;;;;;;;;;9.20;99.90;;;;;;5072146;28;20044;-75
2023/04/07 08:25:02;;;;;;;34.63;16.17;;;9.20;99.90;;;;;;5072103;28;19921;-77
2023/04/07 08:27:28;;;;;;;30.00;15.32;;;9.30;99.90;;;;;;5070534;28;20049;-75
2023/04/07 08:30:01;;;;;;;32.50;16.25;;;9.40;99.90;;;;;;5072760;28;20055;-75
2023/04/07 08:32:39;;;;;;;29.38;15.85;;;9.50;99.90;;;;;;5071730;28;20102;-76
2023/04/07 08:35:05;;;;;;;29.92;15.07;;;9.70;99.90;;;;;;5071387;28;20127;-75
2023/04/07 08:37:32;;;;;;;29.50;14.73;;;9.80;99.90;;;;;;5071070;28;20047;-76
2023/04/07 08:39:58;;;;;;;29.48;16.02;;;9.90;99.90;;;;;;5071749;28;20052;-76
2023/04/07 08:42:32;;;;;;;28.67;15.18;;;10.10;99.90;;;;;;5070609;28;20044;-75
2023/04/07 08:45:05;;;;;;;30.27;14.15;;;10.10;99.90;;;;;;5072382;28;20051;-77
2023/04/07 08:47:33;;;;;;;29.88;15.75;;;10.30;99.90;;;;;;5054352;28;20504;-76
2023/04/07 08:50:07;;;;;;;24.77;13.20;;;10.30;99.90;;;;;;5072065;28;20051;-75
2023/04/07 08:52:40;;;;;;;24.17;13.35;;;10.40;99.90;;;;;;5072092;28;20060;-76
2023/04/07 08:55:07;;;;;;;25.50;13.38;;;10.30;99.90;;;;;;5070944;28;20550;-77
2023/04/07 08:57:33;;;;;;;25.73;12.98;;;10.30;99.90;;;;;;5072139;28;20041;-75
2023/04/07 09:00:04;;;;;;;28.38;14.10;;;10.30;99.90;;;;;;5072229;28;20045;-77
2023/04/07 09:02:38;;;;;;;31.40;17.33;;;10.10;99.90;;;;;;5054988;28;20056;-77
2023/04/07 09:05:07;;;;;;;29.10;15.90;;;10.10;99.90;;;;;;5105317;28;20082;-77
2023/04/07 09:07:34;;;;;;;27.73;15.00;;;10.10;99.90;;;;;;5077701;28;20072;-75
2023/04/07 09:10:01;;;;;;;26.25;14.98;;;10.20;99.90;;;;;;5064098;28;20041;-76
2023/04/07 09:12:28;;;;;;;25.25;14.82;;;10.20;99.90;;;;;;5076488;28;20040;-78
2023/04/07 09:14:54;;;;;;;19.63;10.88;;;10.20;99.90;;;;;;5073035;28;20044;-77
2023/04/07 09:17:20;;;;;;;16.83;8.98;;;10.30;99.90;;;;;;5072866;28;20045;-78
2023/04/07 09:19:47;;;;;;;20.50;10.70;;;10.30;99.90;;;;;;5074118;28;20106;-77
2023/04/07 09:22:13;;;;;;;20.55;11.38;;;10.30;99.90;;;;;;5044333;28;20521;-77
2023/04/07 09:24:40;;;;;;;17.93;10.40;;;10.40;99.90;;;;;;5076431;28;20094;-80
2023/04/07 09:27:10;;;;;;;;;;;10.40;99.90;;;;;;5060442;28;20052;-80
2023/04/07 09:29:36;;;;;;;25.25;11.80;;;10.30;99.90;;;;;;5074612;28;20006;-78
2023/04/07 09:32:03;;;;;;;20.40;11.20;;;10.30;99.90;;;;;;5074150;28;20059;-80
2023/04/07 09:34:34;;;;;;;20.80;11.68;;;10.30;99.90;;;;;;5073778;28;20048;-78
2023/04/07 09:37:00;;;;;;;20.70;11.63;;;10.20;99.90;;;;;;5074103;28;20084;-78
2023/04/07 09:39:27;;;;;;;20.73;10.45;;;10.20;99.90;;;;;;5076096;28;20053;-78
2023/04/07 09:41:53;;;;;;;21.77;12.05;;;10.20;99.90;;;;;;5076524;28;20123;-78
2023/04/07 09:44:19;;;;;;;21.38;11.55;;;10.20;99.90;;;;;;5075601;28;20105;-80
2023/04/07 09:46:56;;;;;;;22.30;12.50;;;10.10;99.90;;;;;;5074095;28;20051;-78
2023/04/07 09:49:26;;;;;;;23.33;13.52;;;10.20;99.90;;;;;;5075256;28;20041;-79
2023/04/07 09:52:08;;;;;;;22.27;12.90;;;10.20;99.90;;;;;;5073759;28;20064;-77
2023/04/07 09:54:36;;;;;;;21.40;12.02;;;10.30;99.90;;;;;;5074846;28;20052;-80
2023/04/07 09:57:04;;;;;;;23.60;12.18;;;10.20;99.90;;;;;;5074111;28;20106;-79
2023/04/07 09:59:30;;;;;;;;;;;10.30;99.90;;;;;;5074419;28;20056;-79
2023/04/07 10:01:56;;;;;;;20.80;11.00;;;10.30;99.90;;;;;;5074579;28;19920;-77
2023/04/07 10:04:23;;;;;;;23.23;11.43;;;10.40;99.90;;;;;;5072927;28;20043;-78
2023/04/07 10:06:50;;;;;;;19.50;10.52;;;10.50;99.90;;;;;;5075456;28;20492;-81
2023/04/07 10:09:16;;;;;;;17.27;9.20;;;10.60;99.90;;;;;;5074997;28;20088;-79
2023/04/07 10:11:43;;;;;;;16.58;9.75;;;10.60;99.90;;;;;;5057900;28;20041;-77
2023/04/07 10:14:10;;;;;;;15.45;8.77;;;10.60;99.90;;;;;;5074051;28;20084;-78
2023/04/07 10:16:41;;;;;;;15.73;8.60;;;10.60;99.90;;;;;;5075216;28;20060;-79
2023/04/07 10:19:07;;;;;;;15.35;7.30;;;10.60;99.90;;;;;;5076852;28;20182;-78
2023/04/07 10:21:38;;;;;;;13.02;7.97;;;10.70;99.90;;;;;;5076739;28;20397;-80
2023/04/07 10:24:42;;;;;;;13.73;7.55;;;10.70;99.90;;;;;;5057376;28;20508;-81
2023/04/07 10:27:11;;;;;;;13.60;6.95;;;10.70;99.90;;;;;;5075017;28;20056;-76
2023/04/07 10:29:44;;;;;;;13.90;7.40;;;10.70;99.90;;;;;;5073915;28;20056;-78
2023/04/07 10:32:10;;;;;;;12.32;6.55;;;10.70;99.90;;;;;;5073778;28;20045;-76
2023/04/07 10:34:52;;;;;;;12.40;6.53;;;10.80;99.90;;;;;;5073468;28;20089;-77
2023/04/07 10:37:21;;;;;;;13.50;5.80;;;10.70;99.90;;;;;;5073845;28;20052;-78
2023/04/07 10:39:51;;;;;;;11.07;5.57;;;10.70;99.90;;;;;;5074480;28;20457;-78
2023/04/07 10:42:35;;;;;;;10.32;4.55;;;10.70;99.90;;;;;;5074191;28;20454;-76
2023/04/07 10:45:02;;;;;;;11.77;6.47;;;10.80;99.90;;;;;;5074053;28;20040;-79
2023/04/07 10:47:28;;;;;;;12.85;6.00;;;10.80;99.90;;;;;;5073831;28;20090;-79
2023/04/07 10:50:17;;;;;;;10.45;5.80;;;11.00;99.90;;;;;;5074229;28;20045;-78
2023/04/07 10:52:43;;;;;;;10.40;5.40;;;11.20;99.90;;;;;;5073714;28;20143;-77
2023/04/07 10:55:39;;;;;;;10.43;4.90;;;11.40;99.90;;;;;;5060081;28;20107;-81
2023/04/07 10:58:21;;;;;;;9.70;4.60;;;11.60;99.90;;;;;;5044230;28;20088;-76
2023/04/07 11:01:05;;;;;;;10.98;5.03;;;11.60;99.90;;;;;;5053800;28;20667;-80
2023/04/07 11:03:50;;;;;;;8.05;4.45;;;11.70;99.90;;;;;;5053736;28;20455;-77
2023/04/07 11:06:16;;;;;;;9.25;4.20;;;11.70;99.90;;;;;;5053980;28;20045;-80
2023/04/07 11:08:47;;;;;;;8.70;4.82;;;11.60;99.90;;;;;;5052021;28;20052;-80
2023/04/07 11:11:14;;;;;;;10.57;5.00;;;11.50;99.90;;;;;;5054514;28;20083;-81
2023/04/07 11:13:47;;;;;;;9.35;4.75;;;11.60;99.90;;;;;;5054176;28;20544;-79
2023/04/07 11:16:17;;;;;;;10.40;5.28;;;11.50;99.90;;;;;;5053711;28;20178;-80
2023/04/07 11:18:45;;;;;;;10.50;5.72;;;11.60;99.90;;;;;;5053306;28;20456;-82
2023/04/07 11:21:10;;;;;;;11.15;4.40;;;11.50;99.90;;;;;;5052601;28;20053;-77
2023/04/07 11:23:42;;;;;;;11.73;5.30;;;11.50;99.90;;;;;;5053246;28;20122;-78
2023/04/07 11:26:12;;;;;;;10.10;5.32;;;11.50;99.90;;;;;;5055126;28;20066;-82
2023/04/07 11:28:52;;;;;;;10.02;4.80;;;11.40;99.90;;;;;;5053396;28;20049;-82
2023/04/07 11:31:22;;;;;;;10.25;4.68;;;11.30;99.90;;;;;;5053844;28;20135;-82
2023/04/07 11:33:52;;;;;;;9.02;4.53;;;11.40;99.90;;;;;;5053834;28;20403;-81
2023/04/07 11:36:29;;;;;;;10.38;5.63;;;11.40;99.90;;;;;;5053474;28;20040;-80
2023/04/07 11:38:56;;;;;;;13.48;5.78;;;11.30;99.90;;;;;;5053507;28;20049;-79
2023/04/07 11:41:23;;;;;;;12.48;6.82;;;11.30;99.90;;;;;;5053536;28;20055;-76
2023/04/07 11:44:06;;;;;;;13.25;6.80;;;11.40;99.90;;;;;;5054622;28;20087;-78
2023/04/07 11:46:31;;;;;;;13.98;7.10;;;11.40;99.90;;;;;;5056903;28;20051;-83
2023/04/07 11:49:12;;;;;;;12.55;7.00;;;11.40;99.90;;;;;;5054698;28;20108;-78
2023/04/07 11:51:37;;;;;;;13.60;8.15;;;11.50;99.90;;;;;;5055134;28;20405;-78
2023/04/07 11:54:03;;;;;;;11.55;6.40;;;11.60;99.90;;;;;;5053144;28;20067;-80
2023/04/07 11:56:29;;;;;;;9.95;5.50;;;11.70;99.90;;;;;;5053842;28;20051;-78
2023/04/07 11:58:56;;;;;;;8.93;4.83;;;11.70;99.90;;;;;;5037350;28;20052;-81
2023/04/07 12:01:25;;;;;;;8.32;4.90;;;11.70;99.90;;;;;;5054181;28;20041;-82
2023/04/07 12:04:02;;;;;;;9.85;5.45;;;11.70;99.90;;;;;;5071867;28;20518;-76
2023/04/07 12:06:29;;;;;;;11.43;6.38;;;11.70;99.90;;;;;;5072907;28;20055;-78
2023/04/07 12:08:55;;;;;;;10.20;5.47;;;11.60;99.90;;;;;;5072873;28;20045;-76
2023/04/07 12:11:21;;;;;;;10.07;6.15;;;11.60;99.90;;;;;;5072084;28;20128;-76
2023/04/07 12:13:47;;;;;;;9.57;5.53;;;11.50;99.90;;;;;;5072095;28;20040;-77
2023/04/07 12:16:12;;;;;;;11.13;6.30;;;11.60;99.90;;;;;;5073143;28;20048;-76
2023/04/07 12:18:39;;;;;;;9.88;5.40;;;11.70;99.90;;;;;;5054161;28;20135;-76
2023/04/07 12:21:04;;;;;;;9.75;5.45;;;11.80;99.90;;;;;;5051556;28;20127;-78
2023/04/07 12:23:30;;;;;;;11.35;5.40;;;11.80;99.90;;;;;;5050641;28;20577;-77
2023/04/07 12:25:56;;;;;;;11.55;6.40;;;11.70;99.90;;;;;;5051117;28;20041;-76
2023/04/07 12:28:21;;;;;;;10.15;5.32;;;11.70;99.90;;;;;;5034386;28;20431;-78
2023/04/07 12:30:47;;;;;;;12.18;6.93;;;11.60;99.90;;;;;;5052081;28;20501;-78
2023/04/07 12:33:13;;;;;;;14.27;7.97;;;11.50;99.90;;;;;;5052414;28;20474;-77
2023/04/07 12:35:39;;;;;;;12.95;6.88;;;11.50;99.90;;;;;;5050991;28;20084;-77
2023/04/07 12:38:05;;;;;;;15.30;8.40;;;11.50;99.90;;;;;;5034268;28;20131;-77
2023/04/07 12:40:31;;;;;;;15.88;9.32;;;11.50;99.90;;;;;;5050987;28;20443;-77